createdAt,value
2018-04-22T00:02:27.695Z,95923.84
2018-04-22T00:04:56.090Z,95918.20
2018-04-22T00:07:24.785Z,95920.77
2018-04-22T00:09:53.117Z,95924.11
2018-04-22T00:12:21.493Z,95920.34
2018-04-22T00:14:49.836Z,95920.17
2018-04-22T00:17:18.146Z,95916.29
2018-04-22T00:19:46.523Z,95912.56
2018-04-22T00:22:14.914Z,95915.40
2018-04-22T00:24:43.252Z,95908.80
2018-04-22T00:27:11.581Z,95906.66
2018-04-22T00:29:39.953Z,95914.84
2018-04-22T00:32:08.278Z,95915.67
2018-04-22T00:34:36.654Z,95912.56
2018-04-22T00:37:05.054Z,95918.18
2018-04-22T00:39:33.458Z,95916.62
2018-04-22T00:42:01.848Z,95911.03
2018-04-22T00:44:30.170Z,95915.28
2018-04-22T00:46:58.601Z,95919.54
2018-04-22T00:49:26.918Z,95910.63
2018-04-22T00:51:55.354Z,95918.36
2018-04-22T00:54:23.674Z,95912.10
2018-04-22T00:56:52.102Z,95903.86
2018-04-22T00:59:20.458Z,95912.50
2018-04-22T01:01:48.870Z,95909.73
2018-04-22T01:04:17.198Z,95906.39
2018-04-22T01:06:45.542Z,95907.13
2018-04-22T01:09:13.896Z,95903.97
2018-04-22T01:11:42.281Z,95895.94
2018-04-22T01:14:10.606Z,95898.70
2018-04-22T01:16:38.950Z,95892.92
2018-04-22T01:19:07.309Z,95888.38
2018-04-22T01:21:35.672Z,95893.84
2018-04-22T01:24:04.000Z,95893.59
2018-04-22T01:26:32.315Z,95894.59
2018-04-22T01:29:00.724Z,95891.58
2018-04-22T01:31:29.103Z,95891.64
2018-04-22T01:33:57.453Z,95891.06
2018-04-22T01:36:25.855Z,95893.86
2018-04-22T01:38:54.242Z,95895.23
2018-04-22T01:41:22.561Z,95887.00
2018-04-22T01:43:50.910Z,95887.70
2018-04-22T01:46:19.239Z,95888.02
2018-04-22T01:48:47.643Z,95885.71
2018-04-22T01:51:15.967Z,95885.82
2018-04-22T01:53:44.401Z,95891.52
2018-04-22T01:56:12.785Z,95883.63
2018-04-22T01:58:41.135Z,95884.39
2018-04-22T02:01:09.542Z,95879.96
2018-04-22T02:03:37.896Z,95878.95
2018-04-22T02:06:06.296Z,95884.75
2018-04-22T02:08:34.676Z,95879.61
2018-04-22T02:11:03.004Z,95878.89
2018-04-22T02:13:32.042Z,95882.12
2018-04-22T02:16:00.396Z,95883.09
2018-04-22T02:18:28.722Z,95876.67
2018-04-22T02:20:57.065Z,95881.55
2018-04-22T02:23:25.457Z,95874.16
2018-04-22T02:25:53.801Z,95869.75
2018-04-22T02:28:22.121Z,95868.05
2018-04-22T02:30:50.474Z,95873.48
2018-04-22T02:33:18.793Z,95871.25
2018-04-22T02:35:47.134Z,95864.15
2018-04-22T02:38:15.517Z,95873.20
2018-04-22T02:40:43.905Z,95865.59
2018-04-22T02:43:12.216Z,95867.55
2018-04-22T02:45:40.617Z,95865.83
2018-04-22T02:48:08.919Z,95867.09
2018-04-22T02:50:37.266Z,95863.97
2018-04-22T02:53:05.681Z,95857.27
2018-04-22T02:55:34.069Z,95858.84
2018-04-22T02:58:02.440Z,95852.24
2018-04-22T03:00:30.810Z,95853.16
2018-04-22T03:02:59.157Z,95855.61
2018-04-22T03:05:27.585Z,95853.10
2018-04-22T03:07:56.013Z,95859.24
2018-04-22T03:10:25.318Z,95852.20
2018-04-22T03:12:53.736Z,95861.58
2018-04-22T03:15:22.121Z,95854.88
2018-04-22T03:17:50.473Z,95862.25
2018-04-22T03:20:18.833Z,95856.78
2018-04-22T03:22:47.237Z,95858.85
2018-04-22T03:25:15.557Z,95860.30
2018-04-22T03:27:43.910Z,95858.72
2018-04-22T03:30:12.234Z,95858.96
2018-04-22T03:32:40.678Z,95860.19
2018-04-22T03:35:09.037Z,95858.98
2018-04-22T03:37:37.374Z,95855.61
2018-04-22T03:40:05.797Z,95853.75
2018-04-22T03:42:34.200Z,95850.63
2018-04-22T03:45:02.566Z,95854.69
2018-04-22T03:47:30.914Z,95845.06
2018-04-22T03:49:59.228Z,95849.11
2018-04-22T03:52:27.595Z,95850.89
2018-04-22T03:54:55.922Z,95855.53
2018-04-22T03:57:24.356Z,95849.63
2018-04-22T03:59:52.704Z,95850.23
2018-04-22T04:02:21.052Z,95845.22
2018-04-22T04:04:49.370Z,95844.93
2018-04-22T04:07:17.744Z,95842.77
2018-04-22T04:09:46.110Z,95848.70
2018-04-22T04:12:14.505Z,95848.00
2018-04-22T04:14:42.849Z,95855.09
2018-04-22T04:17:11.189Z,95850.38
2018-04-22T04:19:51.664Z,95849.41
2018-04-22T04:22:31.752Z,95850.64
2018-04-22T04:28:03.959Z,95848.09
2018-04-22T04:30:32.299Z,95846.64
2018-04-22T04:33:00.613Z,95853.06
2018-04-22T04:35:28.951Z,95849.94
2018-04-22T04:37:57.278Z,95844.55
2018-04-22T04:40:25.690Z,95856.98
2018-04-22T04:42:53.989Z,95855.61
2018-04-22T04:45:22.404Z,95867.36
2018-04-22T04:47:50.782Z,95867.16
2018-04-22T04:50:19.090Z,95863.36
2018-04-22T04:52:47.442Z,95868.69
2018-04-22T04:55:15.754Z,95865.44
2018-04-22T04:57:44.090Z,95871.09
2018-04-22T05:00:12.442Z,95868.97
2018-04-22T05:02:40.761Z,95868.86
2018-04-22T05:05:09.072Z,95869.78
2018-04-22T05:07:37.502Z,95871.62
2018-04-22T05:10:05.873Z,95873.27
2018-04-22T05:12:34.231Z,95879.19
2018-04-22T05:15:02.537Z,95880.63
2018-04-22T05:17:30.905Z,95878.05
2018-04-22T05:19:59.225Z,95883.52
2018-04-22T05:22:27.669Z,95880.31
2018-04-22T05:24:56.050Z,95878.94
2018-04-22T05:27:24.436Z,95883.02
2018-04-22T05:29:52.772Z,95882.92
2018-04-22T05:32:21.197Z,95880.10
2018-04-22T05:34:49.530Z,95883.34
2018-04-22T05:37:17.837Z,95878.96
2018-04-22T05:39:46.226Z,95886.65
2018-04-22T05:42:14.536Z,95886.11
2018-04-22T05:44:42.869Z,95878.74
2018-04-22T05:47:11.241Z,95885.89
2018-04-22T05:49:39.731Z,95877.40
2018-04-22T05:52:08.036Z,95880.92
2018-04-22T05:54:36.385Z,95881.79
2018-04-22T05:57:04.709Z,95886.05
2018-04-22T05:59:33.140Z,95888.38
2018-04-22T06:02:01.452Z,95881.89
2018-04-22T06:04:29.812Z,95890.70
2018-04-22T06:06:58.119Z,95888.77
2018-04-22T06:09:26.452Z,95894.09
2018-04-22T06:11:54.838Z,95893.14
2018-04-22T06:14:23.256Z,95887.39
2018-04-22T06:16:51.708Z,95885.23
2018-04-22T06:19:20.020Z,95883.84
2018-04-22T06:21:48.430Z,95888.81
2018-04-22T06:24:16.740Z,95892.52
2018-04-22T06:26:45.073Z,95889.64
2018-04-22T06:29:13.481Z,95890.23
2018-04-22T06:31:41.858Z,95888.12
2018-04-22T06:34:10.237Z,95884.35
2018-04-22T06:36:38.598Z,95889.36
2018-04-22T06:39:06.980Z,95885.13
2018-04-22T06:41:35.321Z,95888.89
2018-04-22T06:44:03.633Z,95881.42
2018-04-22T06:46:31.980Z,95886.39
2018-04-22T06:49:00.288Z,95883.95
2018-04-22T06:51:28.681Z,95883.35
2018-04-22T06:53:57.015Z,95887.63
2018-04-22T06:56:25.322Z,95889.62
2018-04-22T06:58:53.656Z,95892.91
2018-04-22T07:01:21.992Z,95889.43
2018-04-22T07:03:50.389Z,95890.94
2018-04-22T07:06:18.685Z,95881.58
2018-04-22T07:08:47.118Z,95884.80
2018-04-22T07:11:15.510Z,95879.59
2018-04-22T07:13:43.843Z,95887.77
2018-04-22T07:16:12.162Z,95886.33
2018-04-22T07:18:40.537Z,95887.22
2018-04-22T07:21:08.859Z,95879.98
2018-04-22T07:23:37.196Z,95888.77
2018-04-22T07:26:05.551Z,95885.98
2018-04-22T07:28:33.904Z,95890.52
2018-04-22T07:31:02.215Z,95888.64
2018-04-22T07:33:30.595Z,95894.09
2018-04-22T07:35:58.938Z,95896.56
2018-04-22T07:38:27.247Z,95893.56
2018-04-22T07:40:55.633Z,95892.47
2018-04-22T07:43:23.941Z,95880.80
2018-04-22T07:45:52.282Z,95884.51
2018-04-22T07:48:20.593Z,95885.03
2018-04-22T07:50:48.945Z,95878.76
2018-04-22T07:53:17.317Z,95878.34
2018-04-22T07:55:45.665Z,95881.73
2018-04-22T07:58:14.090Z,95878.22
2018-04-22T08:00:42.426Z,95883.22
2018-04-22T08:03:10.839Z,95882.50
2018-04-22T08:05:39.204Z,95878.91
2018-04-22T08:08:07.525Z,95882.23
2018-04-22T08:10:35.858Z,95878.05
2018-04-22T08:13:04.246Z,95878.88
2018-04-22T08:15:32.592Z,95876.07
2018-04-22T08:18:00.998Z,95872.63
2018-04-22T08:20:29.300Z,95873.42
2018-04-22T08:22:57.704Z,95866.73
2018-04-22T08:25:26.011Z,95879.16
2018-04-22T08:27:54.412Z,95875.23
2018-04-22T08:30:22.802Z,95878.45
2018-04-22T08:32:51.174Z,95879.45
2018-04-22T08:35:19.481Z,95871.39
2018-04-22T08:37:47.923Z,95874.12
2018-04-22T08:40:16.236Z,95869.45
2018-04-22T08:42:44.566Z,95872.39
2018-04-22T08:45:12.865Z,95866.30
2018-04-22T08:47:41.661Z,95870.05
2018-04-22T08:50:09.990Z,95872.59
2018-04-22T08:52:38.354Z,95876.73
2018-04-22T08:55:06.652Z,95879.30
2018-04-22T08:57:35.001Z,95875.36
2018-04-22T09:00:03.317Z,95876.55
2018-04-22T09:02:31.702Z,95871.82
2018-04-22T09:05:00.036Z,95876.35
2018-04-22T09:07:28.400Z,95871.59
2018-04-22T09:09:56.818Z,95866.10
2018-04-22T09:12:25.257Z,95863.91
2018-04-22T09:14:53.571Z,95865.89
2018-04-22T09:17:21.893Z,95859.28
2018-04-22T09:19:50.241Z,95864.56
2018-04-22T09:22:18.562Z,95860.77
2018-04-22T09:24:47.002Z,95860.94
2018-04-22T09:27:15.308Z,95849.88
2018-04-22T09:29:43.651Z,95848.59
2018-04-22T09:32:11.970Z,95847.95
2018-04-22T09:34:41.172Z,95847.36
2018-04-22T09:37:09.552Z,95851.94
2018-04-22T09:39:37.889Z,95854.33
2018-04-22T09:42:07.014Z,95857.67
2018-04-22T09:44:35.317Z,95847.36
2018-04-22T09:47:03.673Z,95847.06
2018-04-22T09:49:32.013Z,95841.70
2018-04-22T09:52:00.356Z,95840.08
2018-04-22T09:54:28.917Z,95835.62
2018-04-22T09:56:57.249Z,95833.52
2018-04-22T09:59:25.565Z,95836.59
2018-04-22T10:01:53.903Z,95824.28
2018-04-22T10:04:27.811Z,95827.65
2018-04-22T10:06:56.127Z,95827.12
2018-04-22T10:09:24.521Z,95819.95
2018-04-22T10:11:52.872Z,95814.83
2018-04-22T10:14:21.485Z,95813.84
2018-04-22T10:16:49.863Z,95814.71
2018-04-22T10:19:18.188Z,95812.30
2018-04-22T10:21:46.564Z,95807.84
2018-04-22T10:24:14.874Z,95801.97
2018-04-22T10:26:43.224Z,95803.95
2018-04-22T10:29:11.602Z,95805.10
2018-04-22T10:31:39.972Z,95800.42
2018-04-22T10:34:08.361Z,95798.63
2018-04-22T10:36:36.712Z,95794.47
2018-04-22T10:39:06.832Z,95796.95
2018-04-22T10:41:35.148Z,95791.75
2018-04-22T10:44:03.490Z,95789.83
2018-04-22T10:46:31.806Z,95789.31
2018-04-22T10:49:00.184Z,95790.70
2018-04-22T10:51:28.549Z,95788.48
2018-04-22T10:53:56.925Z,95792.02
2018-04-22T10:56:25.309Z,95785.28
2018-04-22T10:58:53.717Z,95785.30
2018-04-22T11:01:22.012Z,95784.09
2018-04-22T11:03:50.341Z,95778.83
2018-04-22T11:06:18.723Z,95770.75
2018-04-22T11:08:47.072Z,95772.37
2018-04-22T11:11:15.466Z,95771.86
2018-04-22T11:13:43.844Z,95772.47
2018-04-22T11:16:12.224Z,95767.16
2018-04-22T11:18:40.554Z,95768.71
2018-04-22T11:21:09.265Z,95768.31
2018-04-22T11:23:37.568Z,95765.78
2018-04-22T11:26:05.952Z,95764.44
2018-04-22T11:28:34.340Z,95763.85
2018-04-22T11:31:02.679Z,95761.69
2018-04-22T11:33:31.115Z,95758.77
2018-04-22T11:35:59.439Z,95757.63
2018-04-22T11:38:27.755Z,95750.33
2018-04-22T11:40:56.093Z,95750.94
2018-04-22T11:43:24.489Z,95751.33
2018-04-22T11:45:52.887Z,95756.31
2018-04-22T11:48:21.188Z,95750.04
2018-04-22T11:50:49.532Z,95753.38
2018-04-22T11:53:17.888Z,95751.38
2018-04-22T11:55:46.287Z,95760.78
2018-04-22T11:58:14.597Z,95751.81
2018-04-22T12:00:42.970Z,95748.61
2018-04-22T12:03:11.274Z,95743.27
2018-04-22T12:05:39.686Z,95747.52
2018-04-22T12:08:07.993Z,95741.59
2018-04-22T12:10:36.329Z,95747.80
2018-04-22T12:13:04.645Z,95743.93
2018-04-22T12:15:32.969Z,95736.65
2018-04-22T12:18:01.305Z,95734.40
2018-04-22T12:20:29.686Z,95725.08
2018-04-22T12:22:58.067Z,95738.98
2018-04-22T12:25:26.681Z,95723.71
2018-04-22T12:27:55.127Z,95727.36
2018-04-22T12:30:23.461Z,95724.64
2018-04-22T12:32:51.797Z,95721.45
2018-04-22T12:35:20.108Z,95712.59
2018-04-22T12:37:48.475Z,95716.88
2018-04-22T12:40:16.797Z,95726.05
2018-04-22T12:42:45.157Z,95722.69
2018-04-22T12:45:13.542Z,95712.52
2018-04-22T12:47:41.922Z,95716.38
2018-04-22T12:50:10.294Z,95713.68
2018-04-22T12:52:38.629Z,95705.14
2018-04-22T12:55:07.105Z,95711.89
2018-04-22T12:57:35.432Z,95705.53
2018-04-22T13:00:03.786Z,95699.00
2018-04-22T13:02:32.201Z,95697.42
2018-04-22T13:05:00.505Z,95705.56
2018-04-22T13:07:28.889Z,95705.81
2018-04-22T13:09:57.193Z,95699.27
2018-04-22T13:12:25.521Z,95697.83
2018-04-22T13:14:53.861Z,95703.56
2018-04-22T13:17:22.189Z,95693.52
2018-04-22T13:19:50.632Z,95692.34
2018-04-22T13:22:19.008Z,95688.41
2018-04-22T13:24:47.348Z,95686.01
2018-04-22T13:27:15.657Z,95677.51
2018-04-22T13:29:44.016Z,95678.87
2018-04-22T13:32:12.332Z,95670.27
2018-04-22T13:34:40.833Z,95665.28
2018-04-22T13:37:09.187Z,95667.59
2018-04-22T13:39:37.471Z,95667.91
2018-04-22T13:42:05.781Z,95668.56
2018-04-22T13:44:34.203Z,95669.08
2018-04-22T13:49:37.643Z,95651.53
2018-04-22T13:52:06.010Z,95644.98
2018-04-22T13:54:34.345Z,95646.49
2018-04-22T13:57:02.689Z,95650.89
2018-04-22T13:59:31.030Z,95650.42
2018-04-22T14:01:59.353Z,95642.77
2018-04-22T14:04:27.685Z,95638.55
2018-04-22T14:06:56.002Z,95633.03
2018-04-22T14:09:24.366Z,95632.52
2018-04-22T14:11:52.707Z,95626.62
2018-04-22T14:14:21.028Z,95620.12
2018-04-22T14:16:49.358Z,95613.30
2018-04-22T14:19:17.669Z,95612.65
2018-04-22T14:21:46.021Z,95617.92
2018-04-22T14:24:14.347Z,95622.02
2018-04-22T14:26:42.678Z,95615.09
2018-04-22T14:29:10.994Z,95612.84
2018-04-22T14:31:39.380Z,95610.66
2018-04-22T14:34:07.715Z,95607.89
2018-04-22T14:36:36.093Z,95603.61
2018-04-22T14:39:04.461Z,95602.09
2018-04-22T14:41:32.789Z,95599.30
2018-04-22T14:44:13.202Z,95595.34
2018-04-22T14:46:41.549Z,95597.45
2018-04-22T14:49:09.872Z,95591.44
2018-04-22T14:51:38.272Z,95596.13
2018-04-22T14:54:06.700Z,95600.48
2018-04-22T14:56:35.095Z,95592.05
2018-04-22T14:59:03.477Z,95582.36
2018-04-22T15:01:31.888Z,95579.40
2018-04-22T15:04:00.185Z,95578.25
2018-04-22T15:06:28.509Z,95573.07
2018-04-22T15:08:56.877Z,95577.73
2018-04-22T15:11:25.255Z,95566.09
2018-04-22T15:13:53.680Z,95569.28
2018-04-22T15:16:22.028Z,95557.52
2018-04-22T15:18:50.375Z,95553.16
2018-04-22T15:21:18.689Z,95555.09
2018-04-22T15:23:47.064Z,95565.34
2018-04-22T15:26:15.471Z,95552.31
2018-04-22T15:28:43.809Z,95550.30
2018-04-22T15:31:12.136Z,95558.50
2018-04-22T15:33:40.502Z,95554.62
2018-04-22T15:36:08.828Z,95550.48
2018-04-22T15:38:37.208Z,95548.56
2018-04-22T15:41:05.530Z,95555.39
2018-04-22T15:43:34.008Z,95547.13
2018-04-22T15:46:02.355Z,95544.34
2018-04-22T15:48:30.770Z,95547.20
2018-04-22T15:50:59.134Z,95543.45
2018-04-22T15:53:27.460Z,95540.83
2018-04-22T15:55:55.860Z,95541.11
2018-04-22T15:58:24.184Z,95544.39
2018-04-22T16:00:52.560Z,95541.05
2018-04-22T16:03:20.854Z,95544.26
2018-04-22T16:05:49.253Z,95541.34
